sensor_id;sensor_type;location;lat;lon;timestamp;pressure;altitude;pressure_sealevel;temperature;humidity
21742;BME280;11033;47.490;11.116;2022-12-29T00:02:07;93154.13;;;0.21;84.48
21742;BME280;11033;47.490;11.116;2022-12-29T00:04:32;93150.97;;;0.18;84.25
21742;BME280;11033;47.490;11.116;2022-12-29T00:06:58;93150.97;;;0.18;84.27
21742;BME280;11033;47.490;11.116;2022-12-29T00:09:23;93153.66;;;0.07;84.88
21742;BME280;11033;47.490;11.116;2022-12-29T00:11:48;93150.38;;;0.05;85.07
21742;BME280;11033;47.490;11.116;2022-12-29T00:14:15;93148.16;;;0.00;86.11
21742;BME280;11033;47.490;11.116;2022-12-29T00:16:59;93141.22;;;0.01;85.79
21742;BME280;11033;47.490;11.116;2022-12-29T00:19:24;93139.94;;;-0.05;86.61
21742;BME280;11033;47.490;11.116;2022-12-29T00:22:13;93148.06;;;-0.10;86.22
21742;BME280;11033;47.490;11.116;2022-12-29T00:24:57;93136.06;;;-0.11;85.70
21742;BME280;11033;47.490;11.116;2022-12-29T00:27:26;93152.44;;;-0.10;85.71
21742;BME280;11033;47.490;11.116;2022-12-29T00:30:12;93135.75;;;-0.17;86.30
21742;BME280;11033;47.490;11.116;2022-12-29T00:32:56;93139.44;;;-0.20;86.12
21742;BME280;11033;47.490;11.116;2022-12-29T00:35:45;93135.75;;;-0.17;86.16
21742;BME280;11033;47.490;11.116;2022-12-29T00:38:15;93122.94;;;-0.19;86.20
21742;BME280;11033;47.490;11.116;2022-12-29T00:40:59;93115.06;;;-0.17;85.75
21742;BME280;11033;47.490;11.116;2022-12-29T00:43:43;93127.44;;;-0.21;85.71
21742;BME280;11033;47.490;11.116;2022-12-29T00:46:27;93115.81;;;-0.26;86.48
21742;BME280;11033;47.490;11.116;2022-12-29T00:48:53;93121.31;;;-0.20;86.07
21742;BME280;11033;47.490;11.116;2022-12-29T00:51:37;93109.56;;;-0.24;86.49
21742;BME280;11033;47.490;11.116;2022-12-29T00:54:02;93111.22;;;-0.23;85.84
21742;BME280;11033;47.490;11.116;2022-12-29T00:56:27;93106.03;;;-0.23;85.86
21742;BME280;11033;47.490;11.116;2022-12-29T00:58:53;93111.91;;;-0.21;85.79
21742;BME280;11033;47.490;11.116;2022-12-29T01:01:18;93106.03;;;-0.23;85.48
21742;BME280;11033;47.490;11.116;2022-12-29T01:03:43;93106.09;;;-0.13;84.95
21742;BME280;11033;47.490;11.116;2022-12-29T01:06:11;93107.03;;;-0.14;84.85
21742;BME280;11033;47.490;11.116;2022-12-29T01:08:37;93113.72;;;-0.12;85.14
21742;BME280;11033;47.490;11.116;2022-12-29T01:11:07;93124.09;;;-0.12;84.83
21742;BME280;11033;47.490;11.116;2022-12-29T01:13:34;93125.16;;;-0.14;85.02
21742;BME280;11033;47.490;11.116;2022-12-29T01:16:01;93125.97;;;-0.14;84.71
21742;BME280;11033;47.490;11.116;2022-12-29T01:18:27;93130.91;;;-0.11;84.81
21742;BME280;11033;47.490;11.116;2022-12-29T01:21:03;93131.16;;;-0.14;84.65
21742;BME280;11033;47.490;11.116;2022-12-29T01:23:31;93137.41;;;-0.16;85.09
21742;BME280;11033;47.490;11.116;2022-12-29T01:25:57;93134.44;;;-0.12;85.24
21742;BME280;11033;47.490;11.116;2022-12-29T01:28:22;93143.53;;;-0.17;85.01
21742;BME280;11033;47.490;11.116;2022-12-29T01:30:47;93144.59;;;-0.20;84.67
21742;BME280;11033;47.490;11.116;2022-12-29T01:33:13;93154.19;;;-0.11;85.05
21742;BME280;11033;47.490;11.116;2022-12-29T01:35:39;93149.59;;;-0.07;84.23
21742;BME280;11033;47.490;11.116;2022-12-29T01:38:04;93146.69;;;-0.14;85.36
21742;BME280;11033;47.490;11.116;2022-12-29T01:40:29;93134.69;;;-0.15;85.78
21742;BME280;11033;47.490;11.116;2022-12-29T01:42:55;93138.47;;;-0.19;85.25
21742;BME280;11033;47.490;11.116;2022-12-29T01:45:20;93144.09;;;-0.14;85.20
21742;BME280;11033;47.490;11.116;2022-12-29T01:48:08;93131.72;;;-0.10;84.92
21742;BME280;11033;47.490;11.116;2022-12-29T01:50:49;93135.88;;;-0.19;85.55
21742;BME280;11033;47.490;11.116;2022-12-29T01:53:18;93134.94;;;-0.18;85.15
21742;BME280;11033;47.490;11.116;2022-12-29T01:55:55;93134.94;;;-0.18;85.04
21742;BME280;11033;47.490;11.116;2022-12-29T01:58:24;93140.50;;;-0.22;85.37
21742;BME280;11033;47.490;11.116;2022-12-29T02:00:52;93137.66;;;-0.19;85.57
21742;BME280;11033;47.490;11.116;2022-12-29T02:03:19;93133.06;;;-0.16;85.13
21742;BME280;11033;47.490;11.116;2022-12-29T02:05:57;93134.13;;;-0.18;85.50
21742;BME280;11033;47.490;11.116;2022-12-29T02:08:26;93131.16;;;-0.14;85.65
21742;BME280;11033;47.490;11.116;2022-12-29T02:10:53;93123.13;;;-0.11;84.74
21742;BME280;11033;47.490;11.116;2022-12-29T02:13:18;93117.53;;;-0.16;85.16
21742;BME280;11033;47.490;11.116;2022-12-29T02:18:48;93128.88;;;-0.28;85.79
21742;BME280;11033;47.490;11.116;2022-12-29T02:21:48;93122.06;;;-0.29;85.41
21742;BME280;11033;47.490;11.116;2022-12-29T02:27:26;93117.41;;;-0.35;85.55
21742;BME280;11033;47.490;11.116;2022-12-29T02:30:04;93131.03;;;-0.33;86.18
21742;BME280;11033;47.490;11.116;2022-12-29T02:35:28;93130.34;;;-0.35;85.76
21742;BME280;11033;47.490;11.116;2022-12-29T02:41:29;93130.03;;;-0.42;86.22
21742;BME280;11033;47.490;11.116;2022-12-29T02:44:34;93131.78;;;-0.42;85.99
21742;BME280;11033;47.490;11.116;2022-12-29T02:47:30;93124.28;;;-0.45;86.29
21742;BME280;11033;47.490;11.116;2022-12-29T02:50:09;93124.97;;;-0.43;86.59
21742;BME280;11033;47.490;11.116;2022-12-29T02:53:09;93126.84;;;-0.45;86.23
21742;BME280;11033;47.490;11.116;2022-12-29T02:55:36;93123.66;;;-0.38;85.79
21742;BME280;11033;47.490;11.116;2022-12-29T02:58:19;93116.25;;;-0.42;85.49
21742;BME280;11033;47.490;11.116;2022-12-29T03:06:16;93110.59;;;-0.36;86.15
21742;BME280;11033;47.490;11.116;2022-12-29T03:09:15;93121.88;;;-0.37;85.46
21742;BME280;11033;47.490;11.116;2022-12-29T03:12:13;93118.22;;;-0.35;86.07
21742;BME280;11033;47.490;11.116;2022-12-29T03:15:00;93107.31;;;-0.38;85.15
21742;BME280;11033;47.490;11.116;2022-12-29T03:18:06;93119.28;;;-0.37;85.16
21742;BME280;11033;47.490;11.116;2022-12-29T03:20:42;93099.66;;;-0.40;85.59
21742;BME280;11033;47.490;11.116;2022-12-29T03:23:11;93102.88;;;-0.47;86.13
21742;BME280;11033;47.490;11.116;2022-12-29T03:25:40;93107.81;;;-0.44;86.68
21742;BME280;11033;47.490;11.116;2022-12-29T03:28:12;93112.16;;;-0.45;86.16
21742;BME280;11033;47.490;11.116;2022-12-29T03:30:39;93111.84;;;-0.51;87.01
21742;BME280;11033;47.490;11.116;2022-12-29T03:33:09;93111.59;;;-0.48;86.81
21742;BME280;11033;47.490;11.116;2022-12-29T03:35:37;93114.19;;;-0.48;86.53
21742;BME280;11033;47.490;11.116;2022-12-29T03:40:38;93110.19;;;-0.52;87.06
21742;BME280;11033;47.490;11.116;2022-12-29T03:43:05;93096.56;;;-0.54;87.65
21742;BME280;11033;47.490;11.116;2022-12-29T03:45:30;93103.75;;;-0.58;87.77
21742;BME280;11033;47.490;11.116;2022-12-29T03:47:55;93088.63;;;-0.62;87.48
21742;BME280;11033;47.490;11.116;2022-12-29T03:50:20;93097.91;;;-0.60;87.75
21742;BME280;11033;47.490;11.116;2022-12-29T03:52:46;93097.06;;;-0.60;87.31
21742;BME280;11033;47.490;11.116;2022-12-29T03:55:11;93098.16;;;-0.63;87.63
21742;BME280;11033;47.490;11.116;2022-12-29T03:57:36;93093.09;;;-0.65;87.89
21742;BME280;11033;47.490;11.116;2022-12-29T04:00:03;93098.97;;;-0.62;87.37
21742;BME280;11033;47.490;11.116;2022-12-29T04:02:29;93104.59;;;-0.69;87.13
21742;BME280;11033;47.490;11.116;2022-12-29T04:04:54;93106.25;;;-0.68;87.64
21742;BME280;11033;47.490;11.116;2022-12-29T04:07:19;93104.13;;;-0.62;87.52
21742;BME280;11033;47.490;11.116;2022-12-29T04:09:44;93094.50;;;-0.60;87.36
21742;BME280;11033;47.490;11.116;2022-12-29T04:12:10;93090.97;;;-0.59;86.79
21742;BME280;11033;47.490;11.116;2022-12-29T04:14:35;93098.59;;;-0.58;86.75
21742;BME280;11033;47.490;11.116;2022-12-29T04:17:00;93103.13;;;-0.50;86.53
21742;BME280;11033;47.490;11.116;2022-12-29T04:19:25;93100.69;;;-0.52;86.62
21742;BME280;11033;47.490;11.116;2022-12-29T04:21:51;93106.16;;;-0.45;85.94
21742;BME280;11033;47.490;11.116;2022-12-29T04:24:16;93110.41;;;-0.44;85.76
21742;BME280;11033;47.490;11.116;2022-12-29T04:26:42;93103.47;;;-0.44;86.09
21742;BME280;11033;47.490;11.116;2022-12-29T04:29:07;93107.88;;;-0.35;85.46
21742;BME280;11033;47.490;11.116;2022-12-29T04:31:32;93110.41;;;-0.44;85.47
21742;BME280;11033;47.490;11.116;2022-12-29T04:33:58;93108.94;;;-0.37;85.80
21742;BME280;11033;47.490;11.116;2022-12-29T04:36:24;93105.66;;;-0.39;86.68
21742;BME280;11033;47.490;11.116;2022-12-29T04:38:50;93096.25;;;-0.40;86.66
21742;BME280;11033;47.490;11.116;2022-12-29T04:41:15;93095.31;;;-0.39;86.74
21742;BME280;11033;47.490;11.116;2022-12-29T04:43:40;93085.91;;;-0.40;86.92
21742;BME280;11033;47.490;11.116;2022-12-29T04:46:05;93091.78;;;-0.38;87.26
21742;BME280;11033;47.490;11.116;2022-12-29T04:48:31;93088.38;;;-0.39;87.19
21742;BME280;11033;47.490;11.116;2022-12-29T04:50:56;93086.34;;;-0.35;87.37
21742;BME280;11033;47.490;11.116;2022-12-29T04:53:21;93086.09;;;-0.32;87.24
21742;BME280;11033;47.490;11.116;2022-12-29T04:55:51;93087.50;;;-0.28;87.32
21742;BME280;11033;47.490;11.116;2022-12-29T04:58:17;93085.59;;;-0.26;86.67
21742;BME280;11033;47.490;11.116;2022-12-29T05:00:42;93079.91;;;-0.20;86.10
21742;BME280;11033;47.490;11.116;2022-12-29T05:03:07;93082.63;;;-0.21;85.79
21742;BME280;11033;47.490;11.116;2022-12-29T05:05:33;93085.09;;;-0.20;86.65
21742;BME280;11033;47.490;11.116;2022-12-29T05:07:58;93078.97;;;-0.19;86.63
21742;BME280;11033;47.490;11.116;2022-12-29T05:10:23;93098.72;;;-0.18;86.73
21742;BME280;11033;47.490;11.116;2022-12-29T05:12:48;93086.91;;;-0.11;86.44
21742;BME280;11033;47.490;11.116;2022-12-29T05:15:14;93084.56;;;-0.14;87.00
21742;BME280;11033;47.490;11.116;2022-12-29T05:17:39;93082.66;;;-0.12;86.89
21742;BME280;11033;47.490;11.116;2022-12-29T05:20:05;93092.78;;;-0.09;86.07
21742;BME280;11033;47.490;11.116;2022-12-29T05:22:31;93093.97;;;-0.13;85.91
21742;BME280;11033;47.490;11.116;2022-12-29T05:24:56;93087.59;;;-0.09;86.19
21742;BME280;11033;47.490;11.116;2022-12-29T05:27:21;93086.66;;;-0.08;87.00
21742;BME280;11033;47.490;11.116;2022-12-29T05:29:47;93085.38;;;-0.13;86.99
21742;BME280;11033;47.490;11.116;2022-12-29T05:32:12;93078.19;;;-0.10;86.80
21742;BME280;11033;47.490;11.116;2022-12-29T05:34:37;93077.50;;;-0.12;86.67
21742;BME280;11033;47.490;11.116;2022-12-29T05:37:03;93083.50;;;-0.11;86.93
21742;BME280;11033;47.490;11.116;2022-12-29T05:39:28;93081.03;;;-0.13;86.73
21742;BME280;11033;47.490;11.116;2022-12-29T05:41:54;93077.75;;;-0.15;86.66
21742;BME280;11033;47.490;11.116;2022-12-29T05:44:19;93078.00;;;-0.18;85.99
21742;BME280;11033;47.490;11.116;2022-12-29T05:46:44;93079.53;;;-0.15;86.77
21742;BME280;11033;47.490;11.116;2022-12-29T05:49:10;93076.63;;;-0.22;86.60
21742;BME280;11033;47.490;11.116;2022-12-29T05:51:35;93072.84;;;-0.18;86.84
21742;BME280;11033;47.490;11.116;2022-12-29T05:54:00;93071.44;;;-0.22;87.09
21742;BME280;11033;47.490;11.116;2022-12-29T05:56:26;93065.19;;;-0.19;86.47
21742;BME280;11033;47.490;11.116;2022-12-29T05:58:51;93069.81;;;-0.23;86.53
21742;BME280;11033;47.490;11.116;2022-12-29T06:01:16;93064.25;;;-0.18;86.23
21742;BME280;11033;47.490;11.116;2022-12-29T06:03:41;93058.69;;;-0.14;85.71
21742;BME280;11033;47.490;11.116;2022-12-29T06:06:07;93072.84;;;-0.18;85.92
21742;BME280;11033;47.490;11.116;2022-12-29T06:08:32;93055.94;;;-0.22;86.39
21742;BME280;11033;47.490;11.116;2022-12-29T06:10:57;93061.22;;;-0.23;86.48
21742;BME280;11033;47.490;11.116;2022-12-29T06:13:23;93059.47;;;-0.23;86.61
21742;BME280;11033;47.490;11.116;2022-12-29T06:15:49;93055.75;;;-0.30;86.98
21742;BME280;11033;47.490;11.116;2022-12-29T06:18:14;93049.09;;;-0.23;86.15
21742;BME280;11033;47.490;11.116;2022-12-29T06:20:40;93054.53;;;-0.26;87.15
21742;BME280;11033;47.490;11.116;2022-12-29T06:23:05;93047.03;;;-0.29;86.70
21742;BME280;11033;47.490;11.116;2022-12-29T06:25:30;93044.19;;;-0.26;86.62
21742;BME280;11033;47.490;11.116;2022-12-29T06:27:57;93058.06;;;-0.27;87.00
21742;BME280;11033;47.490;11.116;2022-12-29T06:30:22;93047.97;;;-0.30;87.16
21742;BME280;11033;47.490;11.116;2022-12-29T06:32:48;93046.78;;;-0.26;86.99
21742;BME280;11033;47.490;11.116;2022-12-29T06:35:13;93048.53;;;-0.26;86.90
21742;BME280;11033;47.490;11.116;2022-12-29T06:37:39;93041.47;;;-0.24;86.48
21742;BME280;11033;47.490;11.116;2022-12-29T06:40:04;93035.22;;;-0.22;85.96
21742;BME280;11033;47.490;11.116;2022-12-29T06:42:30;93032.06;;;-0.25;86.27
21742;BME280;11033;47.490;11.116;2022-12-29T06:44:55;93033.59;;;-0.23;86.53
21742;BME280;11033;47.490;11.116;2022-12-29T06:47:23;93030.06;;;-0.22;86.39
21742;BME280;11033;47.490;11.116;2022-12-29T06:49:48;93034.78;;;-0.27;86.68
21742;BME280;11033;47.490;11.116;2022-12-29T06:52:15;93026.06;;;-0.26;86.63
21742;BME280;11033;47.490;11.116;2022-12-29T06:54:40;93018.31;;;-0.26;86.40
21742;BME280;11033;47.490;11.116;2022-12-29T06:57:05;93016.94;;;-0.30;86.54
21742;BME280;11033;47.490;11.116;2022-12-29T06:59:30;93020.22;;;-0.28;86.27
21742;BME280;11033;47.490;11.116;2022-12-29T07:01:56;93019.97;;;-0.25;86.04
21742;BME280;11033;47.490;11.116;2022-12-29T07:04:21;93036.31;;;-0.24;85.67
21742;BME280;11033;47.490;11.116;2022-12-29T07:06:46;93031.38;;;-0.27;86.81
21742;BME280;11033;47.490;11.116;2022-12-29T07:09:12;93033.59;;;-0.23;86.63
21742;BME280;11033;47.490;11.116;2022-12-29T07:11:37;93034.28;;;-0.21;87.06
21742;BME280;11033;47.490;11.116;2022-12-29T07:14:03;93041.53;;;-0.15;86.35
21742;BME280;11033;47.490;11.116;2022-12-29T07:16:28;93039.63;;;-0.13;86.13
21742;BME280;11033;47.490;11.116;2022-12-29T07:18:55;93053.25;;;-0.11;86.62
21742;BME280;11033;47.490;11.116;2022-12-29T07:21:21;93038.59;;;-0.01;86.05
21742;BME280;11033;47.490;11.116;2022-12-29T07:23:46;93047.56;;;-0.05;86.22
21742;BME280;11033;47.490;11.116;2022-12-29T07:26:14;93056.28;;;-0.06;86.71
21742;BME280;11033;47.490;11.116;2022-12-29T07:28:40;93056.66;;;0.11;86.11
21742;BME280;11033;47.490;11.116;2022-12-29T07:31:13;93049.81;;;0.10;85.66
21742;BME280;11033;47.490;11.116;2022-12-29T07:33:39;93055.00;;;0.10;85.22
21742;BME280;11033;47.490;11.116;2022-12-29T07:36:04;93057.34;;;0.13;86.00
21742;BME280;11033;47.490;11.116;2022-12-29T07:38:30;93056.38;;;0.14;86.21
21742;BME280;11033;47.490;11.116;2022-12-29T07:40:58;93065.97;;;0.23;86.01
21742;BME280;11033;47.490;11.116;2022-12-29T07:43:24;93056.97;;;0.27;85.07
21742;BME280;11033;47.490;11.116;2022-12-29T07:45:49;93058.34;;;0.31;84.53
21742;BME280;11033;47.490;11.116;2022-12-29T07:48:14;93054.00;;;0.31;85.05
21742;BME280;11033;47.490;11.116;2022-12-29T07:50:40;93059.72;;;0.35;85.06
21742;BME280;11033;47.490;11.116;2022-12-29T07:53:05;93057.81;;;0.37;84.78
21742;BME280;11033;47.490;11.116;2022-12-29T07:55:30;93051.44;;;0.41;85.41
21742;BME280;11033;47.490;11.116;2022-12-29T07:57:56;93068.19;;;0.37;85.25
21742;BME280;11033;47.490;11.116;2022-12-29T08:00:22;93073.78;;;0.42;85.63
21742;BME280;11033;47.490;11.116;2022-12-29T08:02:47;93069.31;;;0.44;85.36
21742;BME280;11033;47.490;11.116;2022-12-29T08:05:13;93064.97;;;0.54;84.67
21742;BME280;11033;47.490;11.116;2022-12-29T08:07:38;93075.06;;;0.57;84.46
21742;BME280;11033;47.490;11.116;2022-12-29T08:10:04;93064.69;;;0.57;85.03
21742;BME280;11033;47.490;11.116;2022-12-29T08:12:30;93078.06;;;0.62;84.81
21742;BME280;11033;47.490;11.116;2022-12-29T08:14:55;93084.41;;;0.79;84.08
21742;BME280;11033;47.490;11.116;2022-12-29T08:17:20;93076.78;;;0.87;83.77
21742;BME280;11033;47.490;11.116;2022-12-29T08:19:46;93077.88;;;0.85;83.58
21742;BME280;11033;47.490;11.116;2022-12-29T08:22:13;93077.06;;;0.94;83.69
21742;BME280;11033;47.490;11.116;2022-12-29T08:24:39;93081.72;;;1.00;83.75
21742;BME280;11033;47.490;11.116;2022-12-29T08:27:04;93077.50;;;0.99;84.15
21742;BME280;11033;47.490;11.116;2022-12-29T08:29:30;93084.72;;;1.05;83.26
21742;BME280;11033;47.490;11.116;2022-12-29T08:31:55;93096.19;;;1.12;83.20
21742;BME280;11033;47.490;11.116;2022-12-29T08:34:20;93091.59;;;1.35;82.96
21742;BME280;11033;47.490;11.116;2022-12-29T08:36:45;93082.56;;;1.49;82.20
21742;BME280;11033;47.490;11.116;2022-12-29T08:39:11;93078.47;;;1.56;81.99
21742;BME280;11033;47.490;11.116;2022-12-29T08:41:36;93079.00;;;1.69;81.76
21742;BME280;11033;47.490;11.116;2022-12-29T08:44:01;93084.28;;;2.06;80.78
21742;BME280;11033;47.490;11.116;2022-12-29T08:46:27;93086.25;;;2.69;79.06
21742;BME280;11033;47.490;11.116;2022-12-29T08:48:53;93093.41;;;2.84;78.86
21742;BME280;11033;47.490;11.116;2022-12-29T08:51:18;93087.31;;;3.21;77.51
21742;BME280;11033;47.490;11.116;2022-12-29T08:53:43;93090.69;;;3.67;76.79
21742;BME280;11033;47.490;11.116;2022-12-29T08:56:09;93095.13;;;3.92;76.11
21742;BME280;11033;47.490;11.116;2022-12-29T08:58:36;93090.84;;;4.09;76.14
21742;BME280;11033;47.490;11.116;2022-12-29T09:01:02;93101.59;;;4.32;75.98
21742;BME280;11033;47.490;11.116;2022-12-29T09:03:27;93086.84;;;4.49;75.87
21742;BME280;11033;47.490;11.116;2022-12-29T09:05:54;93078.84;;;4.76;74.85
21742;BME280;11033;47.490;11.116;2022-12-29T09:08:20;93086.22;;;4.81;75.03
21742;BME280;11033;47.490;11.116;2022-12-29T09:10:46;93097.34;;;4.91;75.49
21742;BME280;11033;47.490;11.116;2022-12-29T09:13:12;93090.56;;;4.72;75.76
21742;BME280;11033;47.490;11.116;2022-12-29T09:15:38;93092.13;;;4.57;74.70
21742;BME280;11033;47.490;11.116;2022-12-29T09:18:04;93094.75;;;4.57;74.67
21742;BME280;11033;47.490;11.116;2022-12-29T09:20:29;93091.81;;;4.34;72.35
21742;BME280;11033;47.490;11.116;2022-12-29T09:22:55;93094.53;;;4.50;72.87
21742;BME280;11033;47.490;11.116;2022-12-29T09:25:20;93099.38;;;4.71;73.25
21742;BME280;11033;47.490;11.116;2022-12-29T09:27:47;93096.47;;;4.74;73.08
21742;BME280;11033;47.490;11.116;2022-12-29T09:30:13;93102.34;;;4.76;73.73
21742;BME280;11033;47.490;11.116;2022-12-29T09:32:39;93098.88;;;4.67;72.71
21742;BME280;11033;47.490;11.116;2022-12-29T09:35:05;93096.06;;;4.61;74.03
21742;BME280;11033;47.490;11.116;2022-12-29T09:37:30;93095.34;;;4.51;74.32
21742;BME280;11033;47.490;11.116;2022-12-29T09:39:56;93093.97;;;4.64;73.21
21742;BME280;11033;47.490;11.116;2022-12-29T09:42:29;93088.34;;;4.85;74.14
21742;BME280;11033;47.490;11.116;2022-12-29T09:45:32;93087.34;;;4.78;72.88
21742;BME280;11033;47.490;11.116;2022-12-29T09:47:59;93087.50;;;4.76;74.21
21742;BME280;11033;47.490;11.116;2022-12-29T09:50:30;93097.19;;;4.92;74.03
21742;BME280;11033;47.490;11.116;2022-12-29T09:53:02;93095.91;;;5.04;72.57
21742;BME280;11033;47.490;11.116;2022-12-29T09:55:53;93096.09;;;5.11;73.32
21742;BME280;11033;47.490;11.116;2022-12-29T10:00:56;93092.75;;;5.27;73.11
21742;BME280;11033;47.490;11.116;2022-12-29T10:03:47;93086.91;;;5.49;72.48
21742;BME280;11033;47.490;11.116;2022-12-29T10:09:17;93086.59;;;5.68;71.79
21742;BME280;11033;47.490;11.116;2022-12-29T10:12:14;93069.19;;;5.93;71.29
21742;BME280;11033;47.490;11.116;2022-12-29T10:17:34;93067.00;;;6.38;71.75
21742;BME280;11033;47.490;11.116;2022-12-29T10:20:31;93056.91;;;6.18;71.57
21742;BME280;11033;47.490;11.116;2022-12-29T10:25:38;93058.16;;;6.47;68.96
21742;BME280;11033;47.490;11.116;2022-12-29T10:28:14;93048.97;;;6.67;69.74
21742;BME280;11033;47.490;11.116;2022-12-29T10:30:42;93052.84;;;6.79;69.33
21742;BME280;11033;47.490;11.116;2022-12-29T10:33:14;93049.16;;;6.96;69.37
21742;BME280;11033;47.490;11.116;2022-12-29T10:35:43;93052.72;;;6.73;68.92
21742;BME280;11033;47.490;11.116;2022-12-29T10:38:29;93052.88;;;6.71;70.87
21742;BME280;11033;47.490;11.116;2022-12-29T10:41:17;93046.19;;;6.68;70.98
21742;BME280;11033;47.490;11.116;2022-12-29T10:43:49;93054.16;;;6.75;70.08
21742;BME280;11033;47.490;11.116;2022-12-29T10:46:18;93049.81;;;6.59;69.99
21742;BME280;11033;47.490;11.116;2022-12-29T10:48:45;93050.41;;;6.78;70.30
21742;BME280;11033;47.490;11.116;2022-12-29T10:51:22;93047.34;;;6.66;71.05
21742;BME280;11033;47.490;11.116;2022-12-29T10:53:55;93035.75;;;6.60;69.60
21742;BME280;11033;47.490;11.116;2022-12-29T10:56:31;93036.22;;;6.64;71.08
21742;BME280;11033;47.490;11.116;2022-12-29T10:59:01;93039.38;;;6.43;70.79
21742;BME280;11033;47.490;11.116;2022-12-29T11:01:35;93032.00;;;6.55;70.51
21742;BME280;11033;47.490;11.116;2022-12-29T11:04:05;93032.50;;;6.42;70.90
21742;BME280;11033;47.490;11.116;2022-12-29T11:06:42;93027.78;;;6.29;71.19
21742;BME280;11033;47.490;11.116;2022-12-29T11:09:24;93028.09;;;6.43;71.59
21742;BME280;11033;47.490;11.116;2022-12-29T11:11:51;93026.78;;;6.39;71.92
21742;BME280;11033;47.490;11.116;2022-12-29T11:14:26;93021.28;;;6.25;72.42
21742;BME280;11033;47.490;11.116;2022-12-29T11:16:59;93032.03;;;6.39;72.46
21742;BME280;11033;47.490;11.116;2022-12-29T11:19:27;93027.09;;;6.52;72.02
21742;BME280;11033;47.490;11.116;2022-12-29T11:21:53;93023.50;;;6.92;71.50
21742;BME280;11033;47.490;11.116;2022-12-29T11:24:22;93017.78;;;7.50;70.01
21742;BME280;11033;47.490;11.116;2022-12-29T11:26:55;93018.06;;;7.55;68.42
21742;BME280;11033;47.490;11.116;2022-12-29T11:29:40;93012.41;;;7.67;67.70
21742;BME280;11033;47.490;11.116;2022-12-29T11:32:27;93003.41;;;8.59;66.33
21742;BME280;11033;47.490;11.116;2022-12-29T11:34:52;93005.34;;;8.27;66.67
21742;BME280;11033;47.490;11.116;2022-12-29T11:37:25;92997.88;;;8.69;65.72
21742;BME280;11033;47.490;11.116;2022-12-29T11:39:55;92995.03;;;9.14;64.11
21742;BME280;11033;47.490;11.116;2022-12-29T11:42:39;92996.91;;;9.06;62.43
21742;BME280;11033;47.490;11.116;2022-12-29T11:47:35;92979.84;;;9.52;62.73
21742;BME280;11033;47.490;11.116;2022-12-29T11:50:04;92980.44;;;10.18;61.41
21742;BME280;11033;47.490;11.116;2022-12-29T11:52:35;92965.81;;;12.53;52.37
21742;BME280;11033;47.490;11.116;2022-12-29T11:55:12;92956.13;;;13.88;52.52
21742;BME280;11033;47.490;11.116;2022-12-29T11:57:41;92950.50;;;16.22;49.00
21742;BME280;11033;47.490;11.116;2022-12-29T12:00:16;92949.47;;;18.25;47.08
21742;BME280;11033;47.490;11.116;2022-12-29T12:03:04;92936.25;;;18.64;43.35
21742;BME280;11033;47.490;11.116;2022-12-29T12:05:45;92935.06;;;17.41;40.68
21742;BME280;11033;47.490;11.116;2022-12-29T12:11:01;92927.31;;;16.53;43.85
21742;BME280;11033;47.490;11.116;2022-12-29T12:13:35;92918.59;;;17.16;43.65
21742;BME280;11033;47.490;11.116;2022-12-29T12:16:07;92914.69;;;18.03;43.65
21742;BME280;11033;47.490;11.116;2022-12-29T12:18:40;92912.38;;;18.74;40.87
21742;BME280;11033;47.490;11.116;2022-12-29T12:27:08;92910.84;;;21.73;36.24
21742;BME280;11033;47.490;11.116;2022-12-29T12:35:24;92885.50;;;23.82;32.10
21742;BME280;11033;47.490;11.116;2022-12-29T12:40:31;92880.09;;;23.87;35.55
21742;BME280;11033;47.490;11.116;2022-12-29T12:57:15;92863.44;;;25.69;27.89
21742;BME280;11033;47.490;11.116;2022-12-29T13:00:04;92867.22;;;27.00;29.99
21742;BME280;11033;47.490;11.116;2022-12-29T13:16:48;92852.94;;;27.82;26.20
21742;BME280;11033;47.490;11.116;2022-12-29T13:19:26;92844.84;;;28.76;25.36
21742;BME280;11033;47.490;11.116;2022-12-29T13:22:07;92854.31;;;27.24;25.81
21742;BME280;11033;47.490;11.116;2022-12-29T13:27:26;92839.19;;;25.64;29.06
21742;BME280;11033;47.490;11.116;2022-12-29T13:30:01;92842.44;;;25.66;28.49
21742;BME280;11033;47.490;11.116;2022-12-29T13:37:52;92835.56;;;26.35;27.14
21742;BME280;11033;47.490;11.116;2022-12-29T13:40:24;92837.75;;;22.38;31.77
21742;BME280;11033;47.490;11.116;2022-12-29T13:42:51;92843.38;;;20.02;36.20
21742;BME280;11033;47.490;11.116;2022-12-29T13:45:24;92838.50;;;22.95;33.33
21742;BME280;11033;47.490;11.116;2022-12-29T13:50:39;92839.03;;;20.65;33.73
21742;BME280;11033;47.490;11.116;2022-12-29T13:53:28;92843.91;;;18.46;34.95
21742;BME280;11033;47.490;11.116;2022-12-29T13:56:34;92841.22;;;17.34;37.13
21742;BME280;11033;47.490;11.116;2022-12-29T14:01:50;92828.81;;;16.12;38.85
21742;BME280;11033;47.490;11.116;2022-12-29T14:04:27;92833.88;;;16.14;39.37
21742;BME280;11033;47.490;11.116;2022-12-29T14:09:46;92833.56;;;14.24;41.91
21742;BME280;11033;47.490;11.116;2022-12-29T14:17:32;92835.16;;;14.07;42.95
21742;BME280;11033;47.490;11.116;2022-12-29T14:19:57;92840.13;;;12.70;44.40
21742;BME280;11033;47.490;11.116;2022-12-29T14:22:28;92834.22;;;12.11;45.41
21742;BME280;11033;47.490;11.116;2022-12-29T14:24:53;92846.41;;;12.12;45.66
21742;BME280;11033;47.490;11.116;2022-12-29T14:29:45;92833.41;;;11.64;47.35
21742;BME280;11033;47.490;11.116;2022-12-29T14:34:59;92821.00;;;11.05;47.84
21742;BME280;11033;47.490;11.116;2022-12-29T14:37:27;92829.97;;;10.43;49.68
21742;BME280;11033;47.490;11.116;2022-12-29T14:40:14;92827.06;;;10.38;49.33
21742;BME280;11033;47.490;11.116;2022-12-29T14:42:42;92825.16;;;10.18;50.18
21742;BME280;11033;47.490;11.116;2022-12-29T14:45:27;92837.69;;;9.82;51.41
21742;BME280;11033;47.490;11.116;2022-12-29T14:47:53;92829.69;;;9.69;50.49
21742;BME280;11033;47.490;11.116;2022-12-29T14:50:40;92828.66;;;9.91;50.75
21742;BME280;11033;47.490;11.116;2022-12-29T14:53:43;92818.84;;;9.50;51.25
21742;BME280;11033;47.490;11.116;2022-12-29T14:56:10;92831.28;;;9.35;52.40